sensor_id;sensor_type;location;lat;lon;timestamp;P1;durP1;ratioP1;P2;durP2;ratioP2
68614;SDS011;55593;51.994;5.882;2024-01-10T00:01:43;5.97;;;3.38;;
68614;SDS011;55593;51.994;5.882;2024-01-10T00:04:12;11.05;;;4.53;;
68614;SDS011;55593;51.994;5.882;2024-01-10T00:06:42;6.55;;;3.45;;
68614;SDS011;55593;51.994;5.882;2024-01-10T00:09:14;6.25;;;3.30;;
68614;SDS011;55593;51.994;5.882;2024-01-10T00:11:43;6.93;;;3.60;;
68614;SDS011;55593;51.994;5.882;2024-01-10T00:14:12;6.07;;;3.40;;
68614;SDS011;55593;51.994;5.882;2024-01-10T00:16:42;7.85;;;4.20;;
68614;SDS011;55593;51.994;5.882;2024-01-10T00:19:11;6.88;;;3.53;;
68614;SDS011;55593;51.994;5.882;2024-01-10T00:21:41;6.05;;;3.20;;
68614;SDS011;55593;51.994;5.882;2024-01-10T00:24:10;6.18;;;3.17;;
68614;SDS011;55593;51.994;5.882;2024-01-10T00:26:42;6.95;;;3.22;;
68614;SDS011;55593;51.994;5.882;2024-01-10T00:29:12;7.60;;;3.63;;
68614;SDS011;55593;51.994;5.882;2024-01-10T00:31:41;6.95;;;3.40;;
68614;SDS011;55593;51.994;5.882;2024-01-10T00:34:10;10.60;;;4.45;;
68614;SDS011;55593;51.994;5.882;2024-01-10T00:36:39;8.00;;;3.70;;
68614;SDS011;55593;51.994;5.882;2024-01-10T00:39:08;6.38;;;3.65;;
68614;SDS011;55593;51.994;5.882;2024-01-10T00:41:38;7.70;;;3.53;;
68614;SDS011;55593;51.994;5.882;2024-01-10T00:44:09;8.27;;;4.13;;
68614;SDS011;55593;51.994;5.882;2024-01-10T00:46:41;9.07;;;3.85;;
68614;SDS011;55593;51.994;5.882;2024-01-10T00:49:10;6.70;;;3.67;;
68614;SDS011;55593;51.994;5.882;2024-01-10T00:51:40;8.35;;;4.25;;
68614;SDS011;55593;51.994;5.882;2024-01-10T00:54:09;8.10;;;4.05;;
68614;SDS011;55593;51.994;5.882;2024-01-10T00:56:38;6.82;;;3.70;;
68614;SDS011;55593;51.994;5.882;2024-01-10T00:59:10;7.93;;;3.75;;
68614;SDS011;55593;51.994;5.882;2024-01-10T01:01:39;8.48;;;3.88;;
68614;SDS011;55593;51.994;5.882;2024-01-10T01:04:08;7.38;;;3.65;;
68614;SDS011;55593;51.994;5.882;2024-01-10T01:06:37;7.00;;;3.25;;
68614;SDS011;55593;51.994;5.882;2024-01-10T01:09:06;7.15;;;3.72;;
68614;SDS011;55593;51.994;5.882;2024-01-10T01:11:36;7.35;;;4.05;;
68614;SDS011;55593;51.994;5.882;2024-01-10T01:14:05;6.95;;;3.67;;
68614;SDS011;55593;51.994;5.882;2024-01-10T01:16:36;7.55;;;3.97;;
68614;SDS011;55593;51.994;5.882;2024-01-10T01:19:06;9.48;;;4.03;;
68614;SDS011;55593;51.994;5.882;2024-01-10T01:21:35;7.70;;;3.20;;
68614;SDS011;55593;51.994;5.882;2024-01-10T01:24:04;5.53;;;3.03;;
68614;SDS011;55593;51.994;5.882;2024-01-10T01:26:34;9.93;;;3.97;;
68614;SDS011;55593;51.994;5.882;2024-01-10T01:29:03;9.95;;;4.10;;
68614;SDS011;55593;51.994;5.882;2024-01-10T01:31:36;7.97;;;3.60;;
68614;SDS011;55593;51.994;5.882;2024-01-10T01:34:06;6.60;;;3.55;;
68614;SDS011;55593;51.994;5.882;2024-01-10T01:36:35;7.60;;;3.67;;
68614;SDS011;55593;51.994;5.882;2024-01-10T01:39:04;7.10;;;3.85;;
68614;SDS011;55593;51.994;5.882;2024-01-10T01:41:33;6.35;;;3.72;;
68614;SDS011;55593;51.994;5.882;2024-01-10T01:44:02;7.55;;;3.80;;
68614;SDS011;55593;51.994;5.882;2024-01-10T01:46:32;5.88;;;3.35;;
68614;SDS011;55593;51.994;5.882;2024-01-10T01:49:04;10.07;;;3.80;;
68614;SDS011;55593;51.994;5.882;2024-01-10T01:51:33;7.75;;;3.75;;
68614;SDS011;55593;51.994;5.882;2024-01-10T01:54:05;6.72;;;3.47;;
68614;SDS011;55593;51.994;5.882;2024-01-10T01:56:35;8.60;;;4.80;;
68614;SDS011;55593;51.994;5.882;2024-01-10T01:59:05;7.32;;;3.83;;
68614;SDS011;55593;51.994;5.882;2024-01-10T02:01:34;8.13;;;4.15;;
68614;SDS011;55593;51.994;5.882;2024-01-10T02:04:06;11.30;;;3.90;;
68614;SDS011;55593;51.994;5.882;2024-01-10T02:06:36;7.93;;;3.90;;
68614;SDS011;55593;51.994;5.882;2024-01-10T02:09:05;11.30;;;4.75;;
68614;SDS011;55593;51.994;5.882;2024-01-10T02:11:35;8.40;;;4.57;;
68614;SDS011;55593;51.994;5.882;2024-01-10T02:14:04;16.10;;;4.63;;
68614;SDS011;55593;51.994;5.882;2024-01-10T02:16:34;8.20;;;3.90;;
68614;SDS011;55593;51.994;5.882;2024-01-10T02:21:52;7.78;;;3.72;;
68614;SDS011;55593;51.994;5.882;2024-01-10T02:24:22;6.95;;;3.80;;
68614;SDS011;55593;51.994;5.882;2024-01-10T02:26:53;8.10;;;3.97;;
68614;SDS011;55593;51.994;5.882;2024-01-10T02:29:23;8.35;;;4.07;;
68614;SDS011;55593;51.994;5.882;2024-01-10T02:31:52;6.65;;;3.75;;
68614;SDS011;55593;51.994;5.882;2024-01-10T02:34:21;8.95;;;4.57;;
68614;SDS011;55593;51.994;5.882;2024-01-10T02:36:50;10.10;;;3.90;;
68614;SDS011;55593;51.994;5.882;2024-01-10T02:39:19;9.13;;;4.30;;
68614;SDS011;55593;51.994;5.882;2024-01-10T02:41:49;8.48;;;4.35;;
68614;SDS011;55593;51.994;5.882;2024-01-10T02:44:20;10.50;;;4.55;;
68614;SDS011;55593;51.994;5.882;2024-01-10T02:46:49;7.85;;;4.07;;
68614;SDS011;55593;51.994;5.882;2024-01-10T02:49:19;8.00;;;4.05;;
68614;SDS011;55593;51.994;5.882;2024-01-10T02:51:48;8.48;;;4.15;;
68614;SDS011;55593;51.994;5.882;2024-01-10T02:54:17;8.05;;;3.80;;
68614;SDS011;55593;51.994;5.882;2024-01-10T02:56:46;8.00;;;4.47;;
68614;SDS011;55593;51.994;5.882;2024-01-10T02:59:15;7.85;;;4.07;;
68614;SDS011;55593;51.994;5.882;2024-01-10T03:01:47;9.32;;;5.22;;
68614;SDS011;55593;51.994;5.882;2024-01-10T03:04:16;7.90;;;4.00;;
68614;SDS011;55593;51.994;5.882;2024-01-10T03:06:45;10.07;;;4.30;;
68614;SDS011;55593;51.994;5.882;2024-01-10T03:09:15;7.18;;;3.97;;
68614;SDS011;55593;51.994;5.882;2024-01-10T03:11:44;7.50;;;4.30;;
68614;SDS011;55593;51.994;5.882;2024-01-10T03:14:14;7.45;;;3.92;;
68614;SDS011;55593;51.994;5.882;2024-01-10T03:16:43;9.23;;;4.75;;
68614;SDS011;55593;51.994;5.882;2024-01-10T03:19:15;10.38;;;4.82;;
68614;SDS011;55593;51.994;5.882;2024-01-10T03:21:44;8.02;;;4.07;;
68614;SDS011;55593;51.994;5.882;2024-01-10T03:24:13;8.45;;;4.68;;
68614;SDS011;55593;51.994;5.882;2024-01-10T03:26:42;8.73;;;4.45;;
68614;SDS011;55593;51.994;5.882;2024-01-10T03:29:12;8.95;;;4.38;;
68614;SDS011;55593;51.994;5.882;2024-01-10T03:31:41;7.95;;;4.03;;
68614;SDS011;55593;51.994;5.882;2024-01-10T03:34:10;7.32;;;4.10;;
68614;SDS011;55593;51.994;5.882;2024-01-10T03:36:42;7.75;;;4.15;;
68614;SDS011;55593;51.994;5.882;2024-01-10T03:39:11;8.07;;;4.28;;
68614;SDS011;55593;51.994;5.882;2024-01-10T03:41:40;10.38;;;4.47;;
68614;SDS011;55593;51.994;5.882;2024-01-10T03:44:10;10.10;;;5.00;;
68614;SDS011;55593;51.994;5.882;2024-01-10T03:46:39;9.45;;;4.85;;
68614;SDS011;55593;51.994;5.882;2024-01-10T03:49:08;8.52;;;4.47;;
68614;SDS011;55593;51.994;5.882;2024-01-10T03:51:37;8.25;;;3.70;;
68614;SDS011;55593;51.994;5.882;2024-01-10T03:54:10;9.40;;;4.10;;
68614;SDS011;55593;51.994;5.882;2024-01-10T03:56:39;7.65;;;4.78;;
68614;SDS011;55593;51.994;5.882;2024-01-10T03:59:08;12.98;;;4.78;;
68614;SDS011;55593;51.994;5.882;2024-01-10T04:01:37;8.70;;;5.00;;
68614;SDS011;55593;51.994;5.882;2024-01-10T04:04:06;10.90;;;4.75;;
68614;SDS011;55593;51.994;5.882;2024-01-10T04:06:36;8.68;;;4.63;;
68614;SDS011;55593;51.994;5.882;2024-01-10T04:09:05;9.05;;;4.80;;
68614;SDS011;55593;51.994;5.882;2024-01-10T04:11:38;8.65;;;4.47;;
68614;SDS011;55593;51.994;5.882;2024-01-10T04:14:07;9.82;;;4.78;;
68614;SDS011;55593;51.994;5.882;2024-01-10T04:16:36;9.35;;;5.03;;
68614;SDS011;55593;51.994;5.882;2024-01-10T04:19:05;7.22;;;3.83;;
68614;SDS011;55593;51.994;5.882;2024-01-10T04:21:34;10.38;;;4.40;;
68614;SDS011;55593;51.994;5.882;2024-01-10T04:24:04;10.05;;;4.40;;
68614;SDS011;55593;51.994;5.882;2024-01-10T04:26:33;9.55;;;4.18;;
68614;SDS011;55593;51.994;5.882;2024-01-10T04:29:05;8.00;;;4.30;;
68614;SDS011;55593;51.994;5.882;2024-01-10T04:31:34;9.15;;;4.68;;
68614;SDS011;55593;51.994;5.882;2024-01-10T04:34:04;10.82;;;4.65;;
68614;SDS011;55593;51.994;5.882;2024-01-10T04:36:33;11.50;;;4.57;;
68614;SDS011;55593;51.994;5.882;2024-01-10T04:39:02;10.38;;;5.18;;
68614;SDS011;55593;51.994;5.882;2024-01-10T04:41:31;11.02;;;4.90;;
68614;SDS011;55593;51.994;5.882;2024-01-10T04:44:00;9.30;;;4.40;;
68614;SDS011;55593;51.994;5.882;2024-01-10T04:46:32;10.77;;;4.40;;
68614;SDS011;55593;51.994;5.882;2024-01-10T04:49:02;8.65;;;4.53;;
68614;SDS011;55593;51.994;5.882;2024-01-10T04:51:31;11.00;;;4.82;;
68614;SDS011;55593;51.994;5.882;2024-01-10T04:54:00;9.25;;;4.57;;
68614;SDS011;55593;51.994;5.882;2024-01-10T04:56:29;8.90;;;4.03;;
68614;SDS011;55593;51.994;5.882;2024-01-10T04:58:58;8.98;;;4.50;;
68614;SDS011;55593;51.994;5.882;2024-01-10T05:01:33;8.20;;;4.40;;
68614;SDS011;55593;51.994;5.882;2024-01-10T05:04:03;10.07;;;4.50;;
68614;SDS011;55593;51.994;5.882;2024-01-10T05:06:32;10.02;;;5.28;;
68614;SDS011;55593;51.994;5.882;2024-01-10T05:09:02;9.82;;;5.15;;
68614;SDS011;55593;51.994;5.882;2024-01-10T05:11:32;7.43;;;4.47;;
68614;SDS011;55593;51.994;5.882;2024-01-10T05:14:02;10.65;;;5.15;;
68614;SDS011;55593;51.994;5.882;2024-01-10T05:16:33;9.55;;;4.93;;
68614;SDS011;55593;51.994;5.882;2024-01-10T05:19:03;9.50;;;4.75;;
68614;SDS011;55593;51.994;5.882;2024-01-10T05:21:32;11.18;;;5.20;;
68614;SDS011;55593;51.994;5.882;2024-01-10T05:24:01;11.77;;;5.05;;
68614;SDS011;55593;51.994;5.882;2024-01-10T05:26:31;8.85;;;4.57;;
68614;SDS011;55593;51.994;5.882;2024-01-10T05:29:00;8.80;;;5.15;;
68614;SDS011;55593;51.994;5.882;2024-01-10T05:31:29;9.57;;;4.53;;
68614;SDS011;55593;51.994;5.882;2024-01-10T05:34:01;10.27;;;4.82;;
68614;SDS011;55593;51.994;5.882;2024-01-10T05:36:30;11.80;;;5.25;;
68614;SDS011;55593;51.994;5.882;2024-01-10T05:39:00;8.85;;;4.75;;
68614;SDS011;55593;51.994;5.882;2024-01-10T05:41:29;8.52;;;4.78;;
68614;SDS011;55593;51.994;5.882;2024-01-10T05:43:58;9.30;;;5.03;;
68614;SDS011;55593;51.994;5.882;2024-01-10T05:46:30;10.05;;;4.80;;
68614;SDS011;55593;51.994;5.882;2024-01-10T05:49:02;10.90;;;5.55;;
68614;SDS011;55593;51.994;5.882;2024-01-10T05:51:32;9.68;;;4.95;;
68614;SDS011;55593;51.994;5.882;2024-01-10T05:54:01;10.95;;;5.70;;
68614;SDS011;55593;51.994;5.882;2024-01-10T05:56:30;10.60;;;6.18;;
68614;SDS011;55593;51.994;5.882;2024-01-10T05:58:59;9.80;;;4.85;;
68614;SDS011;55593;51.994;5.882;2024-01-10T06:01:28;8.98;;;4.88;;
68614;SDS011;55593;51.994;5.882;2024-01-10T06:03:58;10.30;;;5.10;;
68614;SDS011;55593;51.994;5.882;2024-01-10T06:06:30;11.52;;;6.07;;
68614;SDS011;55593;51.994;5.882;2024-01-10T06:08:59;8.95;;;5.13;;
68614;SDS011;55593;51.994;5.882;2024-01-10T06:11:28;9.75;;;4.90;;
68614;SDS011;55593;51.994;5.882;2024-01-10T06:13:57;8.85;;;5.30;;
68614;SDS011;55593;51.994;5.882;2024-01-10T06:16:27;10.45;;;5.07;;
68614;SDS011;55593;51.994;5.882;2024-01-10T06:18:56;9.57;;;5.07;;
68614;SDS011;55593;51.994;5.882;2024-01-10T06:21:25;11.00;;;5.38;;
68614;SDS011;55593;51.994;5.882;2024-01-10T06:23:57;12.35;;;5.60;;
68614;SDS011;55593;51.994;5.882;2024-01-10T06:26:26;10.57;;;6.03;;
68614;SDS011;55593;51.994;5.882;2024-01-10T06:28:55;13.27;;;6.45;;
68614;SDS011;55593;51.994;5.882;2024-01-10T06:31:24;12.75;;;5.47;;
68614;SDS011;55593;51.994;5.882;2024-01-10T06:33:54;12.63;;;5.78;;
68614;SDS011;55593;51.994;5.882;2024-01-10T06:36:23;11.82;;;5.80;;
68614;SDS011;55593;51.994;5.882;2024-01-10T06:38:52;11.10;;;6.35;;
68614;SDS011;55593;51.994;5.882;2024-01-10T06:41:24;10.65;;;5.75;;
68614;SDS011;55593;51.994;5.882;2024-01-10T06:43:53;11.57;;;5.88;;
68614;SDS011;55593;51.994;5.882;2024-01-10T06:46:31;12.98;;;6.97;;
68614;SDS011;55593;51.994;5.882;2024-01-10T06:49:02;12.10;;;6.18;;
68614;SDS011;55593;51.994;5.882;2024-01-10T06:51:33;11.82;;;6.05;;
68614;SDS011;55593;51.994;5.882;2024-01-10T06:54:03;13.18;;;5.80;;
68614;SDS011;55593;51.994;5.882;2024-01-10T06:56:35;14.80;;;6.28;;
68614;SDS011;55593;51.994;5.882;2024-01-10T06:59:04;12.95;;;6.68;;
68614;SDS011;55593;51.994;5.882;2024-01-10T07:01:33;10.63;;;6.32;;
68614;SDS011;55593;51.994;5.882;2024-01-10T07:04:03;12.68;;;6.03;;
68614;SDS011;55593;51.994;5.882;2024-01-10T07:06:33;11.85;;;6.03;;
68614;SDS011;55593;51.994;5.882;2024-01-10T07:09:16;11.20;;;5.65;;
68614;SDS011;55593;51.994;5.882;2024-01-10T07:11:48;11.57;;;5.82;;
68614;SDS011;55593;51.994;5.882;2024-01-10T07:14:18;12.00;;;6.63;;
68614;SDS011;55593;51.994;5.882;2024-01-10T07:16:47;23.65;;;7.65;;
68614;SDS011;55593;51.994;5.882;2024-01-10T07:19:17;11.35;;;6.32;;
68614;SDS011;55593;51.994;5.882;2024-01-10T07:21:49;13.15;;;6.35;;
68614;SDS011;55593;51.994;5.882;2024-01-10T07:24:20;13.93;;;6.53;;
68614;SDS011;55593;51.994;5.882;2024-01-10T07:26:52;16.40;;;7.60;;
68614;SDS011;55593;51.994;5.882;2024-01-10T07:29:22;12.73;;;6.57;;
68614;SDS011;55593;51.994;5.882;2024-01-10T07:31:59;11.10;;;6.60;;
68614;SDS011;55593;51.994;5.882;2024-01-10T07:34:29;14.23;;;7.00;;
68614;SDS011;55593;51.994;5.882;2024-01-10T07:36:58;13.40;;;6.95;;
68614;SDS011;55593;51.994;5.882;2024-01-10T07:39:29;13.15;;;6.90;;
68614;SDS011;55593;51.994;5.882;2024-01-10T07:42:01;11.45;;;6.68;;
68614;SDS011;55593;51.994;5.882;2024-01-10T07:44:30;14.82;;;6.63;;
68614;SDS011;55593;51.994;5.882;2024-01-10T07:46:59;12.48;;;6.28;;
68614;SDS011;55593;51.994;5.882;2024-01-10T07:49:28;15.05;;;7.22;;
68614;SDS011;55593;51.994;5.882;2024-01-10T07:51:58;11.55;;;6.90;;
68614;SDS011;55593;51.994;5.882;2024-01-10T07:54:27;12.60;;;6.90;;
68614;SDS011;55593;51.994;5.882;2024-01-10T07:56:57;14.68;;;7.68;;
68614;SDS011;55593;51.994;5.882;2024-01-10T07:59:29;12.65;;;7.97;;
68614;SDS011;55593;51.994;5.882;2024-01-10T08:01:59;16.15;;;7.10;;
68614;SDS011;55593;51.994;5.882;2024-01-10T08:04:29;13.27;;;7.43;;
68614;SDS011;55593;51.994;5.882;2024-01-10T08:06:58;14.88;;;7.43;;
68614;SDS011;55593;51.994;5.882;2024-01-10T08:09:27;11.70;;;7.05;;
68614;SDS011;55593;51.994;5.882;2024-01-10T08:11:57;16.05;;;7.38;;
68614;SDS011;55593;51.994;5.882;2024-01-10T08:14:28;14.98;;;7.90;;
68614;SDS011;55593;51.994;5.882;2024-01-10T08:16:58;17.13;;;7.97;;
68614;SDS011;55593;51.994;5.882;2024-01-10T08:19:27;18.50;;;7.90;;
68614;SDS011;55593;51.994;5.882;2024-01-10T08:21:56;16.10;;;7.20;;
68614;SDS011;55593;51.994;5.882;2024-01-10T08:24:25;14.07;;;7.13;;
68614;SDS011;55593;51.994;5.882;2024-01-10T08:26:54;15.27;;;7.80;;
68614;SDS011;55593;51.994;5.882;2024-01-10T08:29:24;15.38;;;7.85;;
68614;SDS011;55593;51.994;5.882;2024-01-10T08:31:59;16.17;;;8.23;;
68614;SDS011;55593;51.994;5.882;2024-01-10T08:34:29;17.00;;;8.75;;
68614;SDS011;55593;51.994;5.882;2024-01-10T08:37:01;17.67;;;9.10;;
68614;SDS011;55593;51.994;5.882;2024-01-10T08:39:30;21.05;;;9.10;;
68614;SDS011;55593;51.994;5.882;2024-01-10T08:41:59;16.58;;;8.60;;
68614;SDS011;55593;51.994;5.882;2024-01-10T08:44:29;14.48;;;7.40;;
68614;SDS011;55593;51.994;5.882;2024-01-10T08:47:00;16.77;;;8.48;;
68614;SDS011;55593;51.994;5.882;2024-01-10T08:49:30;16.27;;;7.95;;
68614;SDS011;55593;51.994;5.882;2024-01-10T08:52:05;20.92;;;9.00;;
68614;SDS011;55593;51.994;5.882;2024-01-10T08:54:44;19.00;;;8.13;;
68614;SDS011;55593;51.994;5.882;2024-01-10T08:57:16;18.15;;;8.13;;
68614;SDS011;55593;51.994;5.882;2024-01-10T08:59:45;18.30;;;8.98;;
68614;SDS011;55593;51.994;5.882;2024-01-10T09:02:17;13.32;;;7.68;;
68614;SDS011;55593;51.994;5.882;2024-01-10T09:04:47;15.18;;;8.57;;
68614;SDS011;55593;51.994;5.882;2024-01-10T09:07:16;17.45;;;9.82;;
68614;SDS011;55593;51.994;5.882;2024-01-10T09:09:50;15.93;;;8.35;;
68614;SDS011;55593;51.994;5.882;2024-01-10T09:12:31;14.93;;;8.15;;
68614;SDS011;55593;51.994;5.882;2024-01-10T09:15:00;13.48;;;8.43;;
68614;SDS011;55593;51.994;5.882;2024-01-10T09:17:32;19.40;;;8.77;;
68614;SDS011;55593;51.994;5.882;2024-01-10T09:20:01;15.57;;;8.63;;
68614;SDS011;55593;51.994;5.882;2024-01-10T09:22:31;15.98;;;8.82;;
68614;SDS011;55593;51.994;5.882;2024-01-10T09:25:00;17.65;;;9.63;;
68614;SDS011;55593;51.994;5.882;2024-01-10T09:27:31;17.15;;;8.95;;
68614;SDS011;55593;51.994;5.882;2024-01-10T09:30:01;16.08;;;8.63;;
68614;SDS011;55593;51.994;5.882;2024-01-10T09:32:36;16.40;;;8.45;;
68614;SDS011;55593;51.994;5.882;2024-01-10T09:35:06;14.35;;;8.20;;
68614;SDS011;55593;51.994;5.882;2024-01-10T09:37:36;17.15;;;8.32;;
68614;SDS011;55593;51.994;5.882;2024-01-10T09:40:06;19.02;;;9.35;;
68614;SDS011;55593;51.994;5.882;2024-01-10T09:42:36;16.58;;;8.30;;
68614;SDS011;55593;51.994;5.882;2024-01-10T09:45:11;15.38;;;7.75;;
68614;SDS011;55593;51.994;5.882;2024-01-10T09:47:48;16.33;;;8.35;;
68614;SDS011;55593;51.994;5.882;2024-01-10T09:50:20;16.40;;;8.07;;
68614;SDS011;55593;51.994;5.882;2024-01-10T09:52:51;17.05;;;8.65;;
68614;SDS011;55593;51.994;5.882;2024-01-10T09:58:08;17.58;;;9.02;;
68614;SDS011;55593;51.994;5.882;2024-01-10T10:00:45;17.75;;;8.85;;
68614;SDS011;55593;51.994;5.882;2024-01-10T10:03:19;15.75;;;8.43;;
68614;SDS011;55593;51.994;5.882;2024-01-10T10:05:56;18.98;;;7.93;;
68614;SDS011;55593;51.994;5.882;2024-01-10T10:08:30;15.70;;;8.43;;
68614;SDS011;55593;51.994;5.882;2024-01-10T10:11:01;17.20;;;8.57;;
68614;SDS011;55593;51.994;5.882;2024-01-10T10:13:34;17.83;;;9.13;;
68614;SDS011;55593;51.994;5.882;2024-01-10T10:16:11;18.67;;;8.93;;
68614;SDS011;55593;51.994;5.882;2024-01-10T10:18:44;19.20;;;9.45;;
68614;SDS011;55593;51.994;5.882;2024-01-10T10:21:19;16.42;;;8.15;;
68614;SDS011;55593;51.994;5.882;2024-01-10T10:23:57;18.48;;;8.73;;
68614;SDS011;55593;51.994;5.882;2024-01-10T10:26:31;18.85;;;9.23;;
68614;SDS011;55593;51.994;5.882;2024-01-10T10:29:02;17.70;;;8.60;;
68614;SDS011;55593;51.994;5.882;2024-01-10T10:31:32;17.83;;;8.98;;
68614;SDS011;55593;51.994;5.882;2024-01-10T10:34:05;15.10;;;8.07;;
68614;SDS011;55593;51.994;5.882;2024-01-10T10:36:35;16.60;;;8.30;;
68614;SDS011;55593;51.994;5.882;2024-01-10T10:39:09;14.57;;;7.85;;
68614;SDS011;55593;51.994;5.882;2024-01-10T10:41:46;16.55;;;8.02;;
68614;SDS011;55593;51.994;5.882;2024-01-10T10:44:29;16.23;;;8.23;;
68614;SDS011;55593;51.994;5.882;2024-01-10T10:47:16;17.35;;;8.43;;
68614;SDS011;55593;51.994;5.882;2024-01-10T10:49:51;17.95;;;10.38;;
68614;SDS011;55593;51.994;5.882;2024-01-10T10:52:22;16.20;;;8.38;;
68614;SDS011;55593;51.994;5.882;2024-01-10T10:54:52;15.20;;;8.68;;
68614;SDS011;55593;51.994;5.882;2024-01-10T10:57:25;17.70;;;9.15;;
68614;SDS011;55593;51.994;5.882;2024-01-10T10:59:54;14.30;;;8.45;;
68614;SDS011;55593;51.994;5.882;2024-01-10T11:02:37;15.90;;;8.50;;
68614;SDS011;55593;51.994;5.882;2024-01-10T11:05:20;17.15;;;8.75;;
68614;SDS011;55593;51.994;5.882;2024-01-10T11:07:53;19.67;;;10.57;;
68614;SDS011;55593;51.994;5.882;2024-01-10T11:10:35;21.83;;;10.55;;
68614;SDS011;55593;51.994;5.882;2024-01-10T11:13:13;17.67;;;8.95;;
68614;SDS011;55593;51.994;5.882;2024-01-10T11:16:24;17.58;;;8.63;;
68614;SDS011;55593;51.994;5.882;2024-01-10T11:19:16;22.90;;;11.23;;
68614;SDS011;55593;51.994;5.882;2024-01-10T11:22:28;16.50;;;8.38;;
68614;SDS011;55593;51.994;5.882;2024-01-10T11:25:11;16.83;;;9.20;;
68614;SDS011;55593;51.994;5.882;2024-01-10T11:27:40;16.92;;;8.82;;
68614;SDS011;55593;51.994;5.882;2024-01-10T11:30:13;19.05;;;8.85;;
68614;SDS011;55593;51.994;5.882;2024-01-10T11:32:43;21.80;;;8.35;;
68614;SDS011;55593;51.994;5.882;2024-01-10T11:35:18;15.80;;;8.45;;
68614;SDS011;55593;51.994;5.882;2024-01-10T11:37:52;18.30;;;8.65;;
68614;SDS011;55593;51.994;5.882;2024-01-10T11:40:23;17.10;;;8.38;;
68614;SDS011;55593;51.994;5.882;2024-01-10T11:43:16;17.38;;;8.18;;
68614;SDS011;55593;51.994;5.882;2024-01-10T11:45:54;18.08;;;8.30;;
68614;SDS011;55593;51.994;5.882;2024-01-10T11:48:26;18.45;;;8.13;;
68614;SDS011;55593;51.994;5.882;2024-01-10T11:50:56;16.73;;;9.23;;
68614;SDS011;55593;51.994;5.882;2024-01-10T11:56:47;15.30;;;7.78;;
68614;SDS011;55593;51.994;5.882;2024-01-10T11:59:34;16.88;;;8.27;;
68614;SDS011;55593;51.994;5.882;2024-01-10T12:02:18;19.77;;;9.35;;
68614;SDS011;55593;51.994;5.882;2024-01-10T12:04:51;17.50;;;8.13;;
68614;SDS011;55593;51.994;5.882;2024-01-10T12:07:23;15.32;;;8.05;;
68614;SDS011;55593;51.994;5.882;2024-01-10T12:09:56;15.10;;;7.80;;
68614;SDS011;55593;51.994;5.882;2024-01-10T12:12:25;19.27;;;9.10;;
68614;SDS011;55593;51.994;5.882;2024-01-10T12:14:54;18.63;;;8.07;;
68614;SDS011;55593;51.994;5.882;2024-01-10T12:17:26;17.75;;;9.35;;
68614;SDS011;55593;51.994;5.882;2024-01-10T12:19:55;22.35;;;10.25;;
68614;SDS011;55593;51.994;5.882;2024-01-10T12:22:27;20.15;;;9.23;;
68614;SDS011;55593;51.994;5.882;2024-01-10T12:25:03;16.45;;;8.13;;
68614;SDS011;55593;51.994;5.882;2024-01-10T12:27:32;15.32;;;8.02;;
68614;SDS011;55593;51.994;5.882;2024-01-10T12:30:02;19.33;;;8.52;;
68614;SDS011;55593;51.994;5.882;2024-01-10T12:32:32;14.88;;;7.88;;
68614;SDS011;55593;51.994;5.882;2024-01-10T12:35:02;15.18;;;8.27;;
68614;SDS011;55593;51.994;5.882;2024-01-10T12:37:53;16.48;;;8.75;;
68614;SDS011;55593;51.994;5.882;2024-01-10T12:40:27;17.25;;;8.88;;
68614;SDS011;55593;51.994;5.882;2024-01-10T12:43:01;17.85;;;9.00;;
68614;SDS011;55593;51.994;5.882;2024-01-10T12:45:30;17.85;;;8.77;;
68614;SDS011;55593;51.994;5.882;2024-01-10T12:48:00;15.57;;;8.65;;
68614;SDS011;55593;51.994;5.882;2024-01-10T12:50:29;16.88;;;8.95;;
68614;SDS011;55593;51.994;5.882;2024-01-10T12:52:58;20.02;;;8.63;;
68614;SDS011;55593;51.994;5.882;2024-01-10T12:55:32;17.17;;;8.32;;
68614;SDS011;55593;51.994;5.882;2024-01-10T12:58:02;15.77;;;8.55;;
68614;SDS011;55593;51.994;5.882;2024-01-10T13:00:33;18.70;;;8.40;;
68614;SDS011;55593;51.994;5.882;2024-01-10T13:03:03;16.63;;;8.38;;
68614;SDS011;55593;51.994;5.882;2024-01-10T13:05:32;18.35;;;9.05;;
68614;SDS011;55593;51.994;5.882;2024-01-10T13:08:02;17.30;;;8.77;;
68614;SDS011;55593;51.994;5.882;2024-01-10T13:10:35;19.13;;;9.10;;
68614;SDS011;55593;51.994;5.882;2024-01-10T13:13:04;19.33;;;8.98;;
68614;SDS011;55593;51.994;5.882;2024-01-10T13:15:33;18.00;;;8.65;;
68614;SDS011;55593;51.994;5.882;2024-01-10T13:18:03;16.05;;;9.25;;
68614;SDS011;55593;51.994;5.882;2024-01-10T13:20:32;18.80;;;10.48;;
68614;SDS011;55593;51.994;5.882;2024-01-10T13:23:02;17.90;;;9.35;;
68614;SDS011;55593;51.994;5.882;2024-01-10T13:25:31;16.52;;;8.82;;
68614;SDS011;55593;51.994;5.882;2024-01-10T13:28:03;19.35;;;9.40;;
68614;SDS011;55593;51.994;5.882;2024-01-10T13:30:32;16.77;;;8.93;;
68614;SDS011;55593;51.994;5.882;2024-01-10T13:33:02;18.05;;;9.02;;
68614;SDS011;55593;51.994;5.882;2024-01-10T13:35:31;17.33;;;8.38;;
68614;SDS011;55593;51.994;5.882;2024-01-10T13:38:01;17.95;;;9.30;;
68614;SDS011;55593;51.994;5.882;2024-01-10T13:40:30;16.15;;;8.18;;
68614;SDS011;55593;51.994;5.882;2024-01-10T13:43:00;20.50;;;10.50;;
68614;SDS011;55593;51.994;5.882;2024-01-10T13:45:31;20.08;;;10.05;;
68614;SDS011;55593;51.994;5.882;2024-01-10T13:48:01;14.25;;;8.00;;
68614;SDS011;55593;51.994;5.882;2024-01-10T13:50:30;19.15;;;10.02;;
68614;SDS011;55593;51.994;5.882;2024-01-10T13:52:59;20.17;;;9.73;;
68614;SDS011;55593;51.994;5.882;2024-01-10T13:55:30;18.27;;;9.73;;
68614;SDS011;55593;51.994;5.882;2024-01-10T13:58:03;15.40;;;8.52;;
68614;SDS011;55593;51.994;5.882;2024-01-10T14:00:33;17.42;;;9.77;;
68614;SDS011;55593;51.994;5.882;2024-01-10T14:03:03;15.98;;;8.57;;
68614;SDS011;55593;51.994;5.882;2024-01-10T14:05:34;21.95;;;10.32;;
68614;SDS011;55593;51.994;5.882;2024-01-10T14:08:03;19.13;;;9.40;;
68614;SDS011;55593;51.994;5.882;2024-01-10T14:10:34;17.45;;;8.50;;
68614;SDS011;55593;51.994;5.882;2024-01-10T14:13:07;18.98;;;9.55;;
68614;SDS011;55593;51.994;5.882;2024-01-10T14:15:37;19.92;;;8.82;;
68614;SDS011;55593;51.994;5.882;2024-01-10T14:18:06;21.00;;;9.10;;
68614;SDS011;55593;51.994;5.882;2024-01-10T14:20:36;18.05;;;8.90;;
68614;SDS011;55593;51.994;5.882;2024-01-10T14:23:05;14.35;;;8.30;;
68614;SDS011;55593;51.994;5.882;2024-01-10T14:25:34;15.80;;;8.98;;
68614;SDS011;55593;51.994;5.882;2024-01-10T14:28:11;15.05;;;8.30;;
68614;SDS011;55593;51.994;5.882;2024-01-10T14:30:40;15.93;;;8.57;;
68614;SDS011;55593;51.994;5.882;2024-01-10T14:33:09;16.23;;;8.25;;
68614;SDS011;55593;51.994;5.882;2024-01-10T14:35:39;16.00;;;8.50;;
68614;SDS011;55593;51.994;5.882;2024-01-10T14:38:08;16.83;;;8.20;;
68614;SDS011;55593;51.994;5.882;2024-01-10T14:40:37;15.70;;;8.88;;
68614;SDS011;55593;51.994;5.882;2024-01-10T14:43:07;15.20;;;8.02;;
68614;SDS011;55593;51.994;5.882;2024-01-10T14:45:38;18.30;;;8.68;;
68614;SDS011;55593;51.994;5.882;2024-01-10T14:48:07;17.92;;;9.73;;
68614;SDS011;55593;51.994;5.882;2024-01-10T14:50:36;15.20;;;8.73;;
68614;SDS011;55593;51.994;5.882;2024-01-10T14:53:06;17.70;;;8.68;;
68614;SDS011;55593;51.994;5.882;2024-01-10T14:55:35;13.38;;;7.50;;
68614;SDS011;55593;51.994;5.882;2024-01-10T14:58:05;17.33;;;8.48;;
68614;SDS011;55593;51.994;5.882;2024-01-10T15:00:34;16.95;;;8.80;;
68614;SDS011;55593;51.994;5.882;2024-01-10T15:03:06;18.92;;;8.45;;
68614;SDS011;55593;51.994;5.882;2024-01-10T15:05:35;15.88;;;9.20;;
68614;SDS011;55593;51.994;5.882;2024-01-10T15:08:05;19.15;;;8.57;;
68614;SDS011;55593;51.994;5.882;2024-01-10T15:10:35;16.85;;;8.35;;